Time;durP1;ratioP1;P1;durP2;ratioP2;P2;SDS_P1;SDS_P2;PMS_P1;PMS_P2;Temp;Humidity;BMP_temperature;BMP_pressure;BME280_temperature;BME280_humidity;BME280_pressure;Samples;Min_cycle;Max_cycle;Signal;HPM_P1;HPM_P2
2021/07/21 00:01:19;;;;;;;32.45;21.52;;;13.30;99.90;;;;;;4214233;28;20080;-78
2021/07/21 00:03:20;;;;;;;31.35;22.00;;;13.30;99.90;;;;;;4187254;28;20033;-80
2021/07/21 00:05:22;;;;;;;32.78;22.50;;;13.20;99.90;;;;;;4195641;28;20039;-79
2021/07/21 00:07:23;;;;;;;34.60;22.57;;;13.20;99.90;;;;;;4192944;28;20135;-79
2021/07/21 00:09:23;;;;;;;35.88;23.38;;;13.20;99.90;;;;;;4213281;28;20772;-79
2021/07/21 00:13:45;;;;;;;33.60;22.20;;;13.20;99.90;;;;;;4213741;28;20043;-80
2021/07/21 00:16:03;;;;;;;34.58;22.33;;;13.20;99.90;;;;;;4195833;28;20371;-78
2021/07/21 00:20:44;;;;;;;31.90;21.08;;;13.10;99.90;;;;;;4144850;28;20048;-79
2021/07/21 00:22:46;;;;;;;30.25;21.65;;;13.10;99.90;;;;;;4182056;28;20429;-77
2021/07/21 00:24:47;;;;;;;33.67;22.65;;;13.10;99.90;;;;;;4198878;28;20058;-78
2021/07/21 00:26:48;;;;;;;34.75;23.20;;;13.10;99.90;;;;;;4189550;28;20098;-79
2021/07/21 00:28:49;;;;;;;32.83;23.10;;;13.00;99.90;;;;;;4185431;28;20451;-78
2021/07/21 00:30:50;;;;;;;38.55;22.83;;;13.00;99.90;;;;;;4212839;28;20036;-79
2021/07/21 00:32:50;;;;;;;33.75;22.55;;;13.00;99.90;;;;;;4212774;28;20071;-78
2021/07/21 00:34:51;;;;;;;34.13;22.63;;;13.00;99.90;;;;;;4212272;28;20032;-79
2021/07/21 00:36:52;;;;;;;31.90;23.02;;;13.00;99.90;;;;;;4212956;28;20020;-79
2021/07/21 00:38:53;;;;;;;30.45;20.50;;;13.00;99.90;;;;;;4213080;28;20020;-78
2021/07/21 00:40:56;;;;;;;40.50;24.13;;;12.90;99.90;;;;;;4194437;28;20025;-78
2021/07/21 00:42:58;;;;;;;37.92;24.08;;;13.00;99.90;;;;;;4213482;28;20130;-79
2021/07/21 00:44:59;;;;;;;35.85;21.95;;;13.00;99.90;;;;;;4194545;28;20033;-78
2021/07/21 00:47:00;;;;;;;35.42;24.38;;;13.00;99.90;;;;;;4191943;28;20377;-79
2021/07/21 00:49:02;;;;;;;33.83;23.83;;;13.00;99.90;;;;;;4184831;28;20144;-78
2021/07/21 00:51:03;;;;;;;33.08;21.08;;;13.00;99.90;;;;;;4212324;28;20024;-78
2021/07/21 00:53:04;;;;;;;30.65;20.08;;;12.90;99.90;;;;;;4188084;28;20043;-79
2021/07/21 00:55:07;;;;;;;29.70;19.83;;;12.90;99.90;;;;;;4178041;28;20069;-76
2021/07/21 00:57:10;;;;;;;37.85;22.92;;;12.90;99.90;;;;;;4191965;28;20111;-80
2021/07/21 00:59:14;;;;;;;33.45;21.92;;;12.90;99.90;;;;;;4199599;28;20383;-79
2021/07/21 01:01:15;;;;;;;36.45;23.00;;;12.90;99.90;;;;;;4178224;28;20565;-78
2021/07/21 01:03:17;;;;;;;37.92;24.40;;;12.90;99.90;;;;;;4188801;28;20064;-78
2021/07/21 01:05:23;;;;;;;37.40;25.42;;;12.80;99.90;;;;;;4216752;28;20503;-79
2021/07/21 01:07:26;;;;;;;42.08;25.17;;;12.80;99.90;;;;;;4199280;28;20472;-79
2021/07/21 01:09:28;;;;;;;40.30;23.55;;;12.80;99.90;;;;;;4200275;28;20028;-79
2021/07/21 01:11:34;;;;;;;40.70;24.73;;;12.80;99.90;;;;;;4193362;28;20086;-78
2021/07/21 01:13:47;;;;;;;41.25;23.98;;;12.80;99.90;;;;;;4224191;28;20069;-78
2021/07/21 01:16:10;;;;;;;38.88;25.13;;;12.80;99.90;;;;;;4188543;28;20057;-79
2021/07/21 01:18:46;;;;;;;40.63;24.50;;;12.80;99.90;;;;;;4214258;28;20059;-79
2021/07/21 01:21:21;;;;;;;38.33;24.02;;;12.80;99.90;;;;;;4154617;28;20041;-79
2021/07/21 01:23:59;;;;;;;41.75;24.40;;;12.70;99.90;;;;;;4208842;28;20163;-79
2021/07/21 01:26:12;;;;;;;41.30;26.67;;;12.70;99.90;;;;;;4215278;28;20021;-79
2021/07/21 01:28:15;;;;;;;37.88;24.90;;;12.70;99.90;;;;;;4184024;28;20043;-78
2021/07/21 01:30:19;;;;;;;42.50;27.33;;;12.60;99.90;;;;;;4178771;28;20436;-79
2021/07/21 01:32:26;;;;;;;39.95;25.52;;;12.60;99.90;;;;;;4197486;28;20154;-80
2021/07/21 01:34:32;;;;;;;47.10;29.00;;;12.60;99.90;;;;;;4197942;28;20028;-78
2021/07/21 01:36:39;;;;;;;49.20;26.88;;;12.60;99.90;;;;;;4216121;28;20028;-80
2021/07/21 01:38:44;;;;;;;47.30;26.67;;;12.60;99.90;;;;;;4197994;28;20036;-78
2021/07/21 01:40:50;;;;;;;41.45;25.17;;;12.60;99.90;;;;;;4193498;28;20172;-78
2021/07/21 01:42:55;;;;;;;39.63;25.15;;;12.60;99.90;;;;;;4197637;28;20036;-79
2021/07/21 01:44:59;;;;;;;44.58;26.30;;;12.60;99.90;;;;;;4197414;28;20076;-79
2021/07/21 01:47:01;;;;;;;37.30;22.83;;;12.60;99.90;;;;;;4187721;28;20029;-79
2021/07/21 01:49:02;;;;;;;42.42;26.15;;;12.70;99.90;;;;;;4196399;28;20028;-79
2021/07/21 01:51:07;;;;;;;43.67;27.00;;;12.60;99.90;;;;;;4216005;28;20020;-78
2021/07/21 01:53:09;;;;;;;37.47;24.92;;;12.60;99.90;;;;;;4215612;28;20058;-79
2021/07/21 01:55:11;;;;;;;37.90;23.38;;;12.60;99.90;;;;;;4198045;28;20500;-79
2021/07/21 01:57:13;;;;;;;41.33;25.77;;;12.60;99.90;;;;;;4195259;28;20037;-79
2021/07/21 01:59:16;;;;;;;43.65;24.98;;;12.60;99.90;;;;;;4214241;28;20090;-78
2021/07/21 02:01:17;;;;;;;41.35;25.52;;;12.50;99.90;;;;;;4197113;28;20028;-79
2021/07/21 02:03:22;;;;;;;40.08;24.55;;;12.50;99.90;;;;;;4215014;28;20115;-79
2021/07/21 02:05:25;;;;;;;43.75;24.35;;;12.50;99.90;;;;;;4215314;28;20032;-79
2021/07/21 02:07:26;;;;;;;41.15;23.38;;;12.50;99.90;;;;;;4214748;28;20024;-78
2021/07/21 02:09:27;;;;;;;38.40;24.88;;;12.40;99.90;;;;;;4186666;28;20036;-78
2021/07/21 02:11:29;;;;;;;40.08;24.42;;;12.30;99.90;;;;;;4211447;28;20054;-78
2021/07/21 02:13:32;;;;;;;44.63;25.92;;;12.40;99.90;;;;;;4214710;28;20391;-79
2021/07/21 02:15:33;;;;;;;40.85;24.42;;;12.40;99.90;;;;;;4197178;28;20021;-79
2021/07/21 02:17:37;;;;;;;37.83;23.95;;;12.40;99.90;;;;;;4213937;28;20040;-79
2021/07/21 02:19:38;;;;;;;40.47;25.05;;;12.40;99.90;;;;;;4214161;28;20568;-79
2021/07/21 02:21:42;;;;;;;38.17;24.38;;;12.40;99.90;;;;;;4211744;28;20036;-78
2021/07/21 02:23:46;;;;;;;35.53;22.55;;;12.40;99.90;;;;;;4195814;28;20527;-78
2021/07/21 02:25:49;;;;;;;43.45;23.70;;;12.30;99.90;;;;;;4214231;28;20028;-78
2021/07/21 02:27:51;;;;;;;42.67;26.42;;;12.30;99.90;;;;;;4197262;28;20025;-78
2021/07/21 02:29:53;;;;;;;38.33;22.75;;;12.30;99.90;;;;;;4197345;28;20486;-79
2021/07/21 02:32:07;;;;;;;39.50;22.98;;;12.30;99.90;;;;;;4197042;28;20099;-79
2021/07/21 02:34:08;;;;;;;37.35;22.60;;;12.20;99.90;;;;;;4214464;28;20433;-78
2021/07/21 02:36:08;;;;;;;46.00;22.75;;;12.20;99.90;;;;;;4215124;28;20032;-80
2021/07/21 02:38:10;;;;;;;43.50;25.15;;;12.20;99.90;;;;;;4215520;28;20024;-79
2021/07/21 02:40:11;;;;;;;40.28;23.85;;;12.20;99.90;;;;;;4186037;28;20638;-78
2021/07/21 02:42:13;;;;;;;37.22;21.20;;;12.20;99.90;;;;;;4211246;28;20036;-79
2021/07/21 02:44:14;;;;;;;34.57;20.27;;;12.20;99.90;;;;;;4215151;28;20020;-79
2021/07/21 02:46:15;;;;;;;42.75;23.95;;;12.20;99.90;;;;;;4196947;28;20159;-79
2021/07/21 02:48:16;;;;;;;39.10;24.52;;;12.10;99.90;;;;;;4214893;28;20024;-79
2021/07/21 02:50:19;;;;;;;37.97;22.88;;;12.20;99.90;;;;;;4214996;28;20111;-80
2021/07/21 02:52:34;;;;;;;39.00;23.08;;;12.10;99.90;;;;;;4194359;28;20035;-78
2021/07/21 02:54:46;;;;;;;36.97;22.92;;;12.20;99.90;;;;;;4180655;28;20033;-79
2021/07/21 02:56:54;;;;;;;37.63;23.00;;;12.20;99.90;;;;;;4187713;28;20387;-78
2021/07/21 02:59:05;;;;;;;42.53;24.30;;;12.20;99.90;;;;;;4196667;28;20079;-79
2021/07/21 03:01:07;;;;;;;38.97;23.63;;;12.30;99.90;;;;;;4214536;28;20082;-78
2021/07/21 03:03:16;;;;;;;39.15;23.50;;;12.20;99.90;;;;;;4197043;28;20059;-79
2021/07/21 03:05:20;;;;;;;46.17;24.75;;;12.20;99.90;;;;;;4215459;28;20032;-80
2021/07/21 03:07:22;;;;;;;38.90;22.60;;;12.20;99.90;;;;;;4187254;28;20068;-79
2021/07/21 03:09:24;;;;;;;39.03;24.00;;;12.10;99.90;;;;;;4210178;28;20031;-79
2021/07/21 03:11:26;;;;;;;34.72;20.88;;;12.10;99.90;;;;;;4213964;28;20047;-78
2021/07/21 03:13:33;;;;;;;35.97;21.23;;;12.10;99.90;;;;;;4205780;28;20165;-79
2021/07/21 03:15:38;;;;;;;49.47;26.33;;;12.00;99.90;;;;;;4189616;28;20114;-80
2021/07/21 03:17:42;;;;;;;44.63;26.17;;;12.00;99.90;;;;;;4186606;28;20021;-79
2021/07/21 03:19:46;;;;;;;41.92;24.05;;;12.00;99.90;;;;;;4185543;28;20037;-79
2021/07/21 03:21:47;;;;;;;45.90;23.45;;;12.00;99.90;;;;;;4196985;28;20036;-79
2021/07/21 03:23:48;;;;;;;39.40;22.77;;;12.00;99.90;;;;;;4196159;28;20360;-79
2021/07/21 03:25:52;;;;;;;37.25;22.08;;;12.00;99.90;;;;;;4187749;28;20027;-79
2021/07/21 03:27:53;;;;;;;37.50;22.83;;;12.00;99.90;;;;;;4198819;28;20119;-79
2021/07/21 03:29:55;;;;;;;36.08;21.83;;;12.00;99.90;;;;;;4194017;28;20510;-79
2021/07/21 03:31:57;;;;;;;38.08;22.65;;;12.00;99.90;;;;;;4197590;28;20112;-79
2021/07/21 03:34:10;;;;;;;39.10;22.00;;;11.90;99.90;;;;;;4196589;28;20131;-79
2021/07/21 03:36:13;;;;;;;46.65;24.52;;;11.90;99.90;;;;;;4183637;28;20044;-79
2021/07/21 03:38:16;;;;;;;42.67;23.65;;;11.90;99.90;;;;;;4191003;28;20033;-78
2021/07/21 03:40:18;;;;;;;44.78;24.00;;;11.90;99.90;;;;;;4194692;28;20035;-78
2021/07/21 03:42:19;;;;;;;40.15;24.80;;;11.90;99.90;;;;;;4188897;28;20032;-79
2021/07/21 03:44:23;;;;;;;43.90;23.80;;;12.00;99.90;;;;;;4195778;28;20021;-79
2021/07/21 03:46:25;;;;;;;45.78;25.00;;;12.00;99.90;;;;;;4197239;28;20505;-79
2021/07/21 03:48:26;;;;;;;41.80;21.45;;;11.90;99.90;;;;;;4196476;28;20384;-78
2021/07/21 03:50:28;;;;;;;43.00;24.55;;;12.00;99.90;;;;;;4183285;28;20029;-79
2021/07/21 03:52:29;;;;;;;42.10;24.20;;;12.00;99.90;;;;;;4196563;28;20048;-79
2021/07/21 03:54:30;;;;;;;45.25;24.73;;;11.90;99.90;;;;;;4189438;28;20027;-79
2021/07/21 03:56:32;;;;;;;40.92;24.00;;;11.90;99.90;;;;;;4194146;28;20033;-78
2021/07/21 03:58:33;;;;;;;44.40;23.58;;;11.90;99.90;;;;;;4187011;28;20026;-79
2021/07/21 04:00:35;;;;;;;41.35;24.42;;;12.00;99.90;;;;;;4193916;28;20063;-79
2021/07/21 04:02:36;;;;;;;43.30;25.17;;;12.00;99.90;;;;;;4195759;28;20028;-78
2021/07/21 04:04:44;;;;;;;43.90;23.58;;;12.00;99.90;;;;;;4195826;28;20468;-79
2021/07/21 04:06:46;;;;;;;48.67;27.20;;;12.00;99.90;;;;;;4196007;28;20506;-79
2021/07/21 04:08:50;;;;;;;44.55;25.75;;;12.00;99.90;;;;;;4196237;28;20079;-79
2021/07/21 04:10:55;;;;;;;45.17;25.88;;;12.00;99.90;;;;;;4196694;28;20112;-79
2021/07/21 04:13:02;;;;;;;47.35;24.95;;;12.00;99.90;;;;;;4195450;28;20115;-80
2021/07/21 04:15:03;;;;;;;45.67;26.23;;;12.10;99.90;;;;;;4194990;28;20032;-79
2021/07/21 04:17:05;;;;;;;44.45;24.48;;;12.10;99.90;;;;;;4197288;28;20067;-80
2021/07/21 04:19:08;;;;;;;43.88;25.60;;;12.00;99.90;;;;;;4195627;28;20133;-79
2021/07/21 04:21:10;;;;;;;38.53;24.85;;;12.10;99.90;;;;;;4211447;28;20033;-80
2021/07/21 04:23:11;;;;;;;38.10;22.60;;;12.10;99.90;;;;;;4192584;28;20071;-80
2021/07/21 04:25:14;;;;;;;44.05;26.08;;;12.20;99.90;;;;;;4195365;28;20515;-80
2021/07/21 04:27:14;;;;;;;39.35;24.90;;;12.20;99.90;;;;;;4195487;28;20472;-80
2021/07/21 04:29:18;;;;;;;42.40;24.85;;;12.20;99.90;;;;;;4195147;28;20038;-79
2021/07/21 04:31:26;;;;;;;54.25;26.27;;;12.30;99.90;;;;;;4209116;28;20033;-79
2021/07/21 04:33:27;;;;;;;51.28;27.10;;;12.30;99.90;;;;;;4193264;28;20036;-78
2021/07/21 04:35:29;;;;;;;48.90;24.48;;;12.30;99.90;;;;;;4192361;28;20033;-80
2021/07/21 04:37:29;;;;;;;43.50;25.25;;;12.40;99.90;;;;;;4187848;28;20047;-79
2021/07/21 04:39:32;;;;;;;45.28;26.63;;;12.40;99.90;;;;;;4191860;28;20152;-79
2021/07/21 04:41:33;;;;;;;42.38;26.80;;;12.40;99.90;;;;;;4209335;28;20389;-79
2021/07/21 04:43:34;;;;;;;41.38;24.50;;;12.50;99.90;;;;;;4187385;28;20032;-80
2021/07/21 04:45:41;;;;;;;37.92;23.90;;;12.50;99.90;;;;;;4189386;28;20109;-80
2021/07/21 04:47:43;;;;;;;43.05;24.83;;;12.60;99.90;;;;;;4191628;28;20045;-79
2021/07/21 04:49:45;;;;;;;43.15;25.15;;;12.60;99.90;;;;;;4206999;28;20033;-80
2021/07/21 04:51:48;;;;;;;36.97;22.73;;;12.70;99.90;;;;;;4191421;28;20038;-80
2021/07/21 04:53:52;;;;;;;;;;;12.80;99.90;;;;;;4191449;28;20036;-79
2021/07/21 04:55:54;;;;;;;38.75;22.73;;;12.80;99.90;;;;;;4208291;28;20291;-79
2021/07/21 04:57:56;;;;;;;43.25;24.77;;;12.80;99.90;;;;;;4212790;28;20020;-79
2021/07/21 04:59:57;;;;;;;45.53;26.83;;;12.90;99.90;;;;;;4194890;28;20028;-79
2021/07/21 05:01:58;;;;;;;42.28;23.55;;;13.00;99.90;;;;;;4195080;28;20107;-79
2021/07/21 05:03:58;;;;;;;35.92;22.77;;;13.00;99.90;;;;;;4203957;28;20051;-80
2021/07/21 05:05:59;;;;;;;40.35;23.77;;;13.10;99.90;;;;;;4203545;28;20032;-80
2021/07/21 05:08:00;;;;;;;35.53;23.73;;;13.20;99.90;;;;;;4195219;28;20183;-79
2021/07/21 05:10:01;;;;;;;38.88;24.88;;;13.30;99.90;;;;;;4210229;28;20495;-80
2021/07/21 05:12:02;;;;;;;35.78;23.27;;;13.50;99.90;;;;;;4186368;28;20451;-79
2021/07/21 05:14:03;;;;;;;38.17;25.58;;;13.60;99.90;;;;;;4207946;28;20371;-80
2021/07/21 05:16:06;;;;;;;35.15;24.05;;;13.80;99.90;;;;;;4197270;28;20116;-79
2021/07/21 05:18:06;;;;;;;38.30;24.05;;;14.00;99.90;;;;;;4193540;28;20419;-79
2021/07/21 05:20:08;;;;;;;45.92;26.17;;;14.10;99.90;;;;;;4190460;28;20041;-79
2021/07/21 05:22:08;;;;;;;42.20;26.83;;;14.30;99.90;;;;;;4209058;28;20036;-80
2021/07/21 05:24:09;;;;;;;36.75;24.58;;;14.40;99.90;;;;;;4212071;28;20031;-79
2021/07/21 05:26:11;;;;;;;35.22;23.38;;;14.60;99.90;;;;;;4194004;28;20037;-80
2021/07/21 05:28:14;;;;;;;38.53;22.95;;;14.70;99.90;;;;;;4190944;28;20033;-79
2021/07/21 05:30:16;;;;;;;33.08;22.63;;;14.80;99.90;;;;;;4209196;28;20089;-80
2021/07/21 05:32:17;;;;;;;31.50;21.98;;;15.00;99.90;;;;;;4200221;28;20032;-78
2021/07/21 05:34:18;;;;;;;34.53;23.02;;;15.10;99.90;;;;;;4194179;28;20421;-78
2021/07/21 05:36:20;;;;;;;35.40;23.25;;;15.20;99.90;;;;;;4192765;28;20526;-79
2021/07/21 05:38:21;;;;;;;33.05;22.33;;;15.40;99.90;;;;;;4212433;28;20035;-79
2021/07/21 05:40:22;;;;;;;26.70;20.35;;;15.50;99.90;;;;;;4193712;28;20039;-79
2021/07/21 05:42:22;;;;;;;30.02;21.17;;;15.60;99.90;;;;;;4179303;28;20128;-78
2021/07/21 05:44:24;;;;;;;30.45;21.55;;;15.70;99.90;;;;;;4184819;28;20029;-79
2021/07/21 05:46:25;;;;;;;28.65;21.73;;;15.80;99.90;;;;;;4211622;28;20035;-79
2021/07/21 05:48:26;;;;;;;31.20;21.45;;;15.90;99.90;;;;;;4212736;28;20025;-79
2021/07/21 05:50:27;;;;;;;27.05;20.55;;;16.00;99.90;;;;;;4203434;28;20082;-79
2021/07/21 05:52:27;;;;;;;108.88;85.75;;;16.20;99.90;;;;;;4196534;28;20032;-79
2021/07/21 05:54:28;;;;;;;33.72;24.45;;;16.30;99.90;;;;;;4200338;28;20340;-80
2021/07/21 05:56:30;;;;;;;42.50;30.80;;;16.30;99.90;;;;;;4180937;28;20051;-79
2021/07/21 05:58:32;;;;;;;28.42;22.08;;;16.40;99.90;;;;;;4209338;28;20039;-79
2021/07/21 06:00:32;;;;;;;27.95;21.00;;;16.40;99.90;;;;;;4197660;28;20036;-79
2021/07/21 06:02:33;;;;;;;24.15;18.63;;;16.40;99.90;;;;;;4214363;28;20143;-79
2021/07/21 06:04:36;;;;;;;24.33;18.27;;;16.50;99.90;;;;;;4212676;28;20040;-79
2021/07/21 06:06:36;;;;;;;26.58;19.13;;;16.60;99.90;;;;;;4192127;28;20113;-79
2021/07/21 06:08:38;;;;;;;26.90;18.92;;;16.70;99.90;;;;;;4197326;28;20037;-79
2021/07/21 06:10:40;;;;;;;23.90;18.13;;;16.80;99.90;;;;;;4206218;28;20047;-78
2021/07/21 06:12:42;;;;;;;28.15;18.65;;;16.80;99.90;;;;;;4212724;28;20040;-79
2021/07/21 06:14:50;;;;;;;25.70;17.30;;;16.90;99.90;;;;;;4193737;28;20105;-78
2021/07/21 06:16:52;;;;;;;23.45;18.42;;;17.00;99.90;;;;;;4214528;28;20020;-78
2021/07/21 06:18:53;;;;;;;28.00;19.70;;;17.00;99.90;;;;;;4192121;28;20128;-79
2021/07/21 06:20:53;;;;;;;25.05;19.73;;;17.10;99.90;;;;;;4213635;28;20097;-79
2021/07/21 06:22:55;;;;;;;26.13;18.67;;;17.20;99.90;;;;;;4213701;28;20020;-79
2021/07/21 06:24:56;;;;;;;21.67;17.17;;;17.20;99.90;;;;;;4212318;28;21159;-79
2021/07/21 06:26:58;;;;;;;22.67;16.85;;;17.30;99.90;;;;;;4212848;28;20278;-80
2021/07/21 06:28:59;;;;;;;25.40;18.90;;;17.30;99.90;;;;;;4212272;28;20035;-78
2021/07/21 06:31:00;;;;;;;25.30;17.90;;;17.50;99.90;;;;;;4191886;28;20629;-79
2021/07/21 06:33:01;;;;;;;26.63;19.20;;;17.50;99.90;;;;;;4214096;28;20039;-78
2021/07/21 06:35:04;;;;;;;24.42;17.60;;;17.60;99.90;;;;;;4209530;28;20020;-79
2021/07/21 06:37:08;;;;;;;23.73;18.88;;;17.70;99.90;;;;;;4194650;28;20587;-79
2021/07/21 06:39:10;;;;;;;23.17;19.55;;;17.80;99.90;;;;;;4210077;28;20395;-80
2021/07/21 06:41:13;;;;;;;23.23;17.13;;;17.90;99.90;;;;;;4214396;28;20040;-80
2021/07/21 06:43:15;;;;;;;;;;;18.10;99.90;;;;;;4194959;28;20397;-80
2021/07/21 06:45:16;;;;;;;28.45;18.65;;;18.10;99.90;;;;;;4207176;28;19917;-80
2021/07/21 06:47:22;;;;;;;24.65;18.95;;;18.30;99.90;;;;;;4196120;28;20025;-80
2021/07/21 06:49:23;;;;;;;22.33;16.80;;;18.50;99.90;;;;;;4207294;28;20722;-80
2021/07/21 06:51:24;;;;;;;27.17;18.27;;;18.60;99.90;;;;;;4207687;28;20029;-80
2021/07/21 06:53:31;;;;;;;29.02;19.95;;;18.70;99.90;;;;;;4192768;28;20033;-79
2021/07/21 06:55:32;;;;;;;23.20;18.20;;;18.60;99.90;;;;;;4194101;28;20041;-80
2021/07/21 06:57:33;;;;;;;23.70;18.67;;;18.60;99.90;;;;;;4192934;28;20529;-80
2021/07/21 06:59:36;;;;;;;28.23;18.20;;;18.70;99.90;;;;;;4213733;28;20036;-80
2021/07/21 07:01:37;;;;;;;22.27;17.92;;;18.80;99.90;;;;;;4207516;28;20027;-80
2021/07/21 07:03:39;;;;;;;25.05;18.55;;;18.90;99.90;;;;;;4213092;28;20479;-80
2021/07/21 07:05:39;;;;;;;27.33;18.38;;;19.00;99.90;;;;;;4190306;28;20103;-80
2021/07/21 07:07:40;;;;;;;26.52;17.42;;;19.00;99.90;;;;;;4201447;28;20029;-80
2021/07/21 07:09:41;;;;;;;24.50;18.90;;;19.00;99.90;;;;;;4206854;28;20032;-79
2021/07/21 07:11:42;;;;;;;21.50;16.98;;;19.00;99.90;;;;;;4195814;28;20096;-79
2021/07/21 07:13:43;;;;;;;22.88;17.58;;;18.90;99.90;;;;;;4195152;28;20040;-79
2021/07/21 07:15:44;;;;;;;27.05;18.23;;;18.90;99.90;;;;;;4214317;28;20032;-80
2021/07/21 07:17:46;;;;;;;30.00;20.05;;;18.80;99.90;;;;;;4212699;28;20387;-79
2021/07/21 07:19:46;;;;;;;29.05;20.15;;;18.70;99.90;;;;;;4191756;28;20589;-79
2021/07/21 07:21:48;;;;;;;26.05;19.73;;;18.60;99.90;;;;;;4194734;28;20018;-79
2021/07/21 07:23:51;;;;;;;25.98;20.35;;;18.60;99.90;;;;;;4205658;28;20082;-79
2021/07/21 07:25:54;;;;;;;27.05;20.92;;;18.60;99.90;;;;;;4196495;28;20031;-79
2021/07/21 07:27:54;;;;;;;28.95;21.00;;;18.60;99.90;;;;;;4193267;28;20043;-80
2021/07/21 07:29:55;;;;;;;28.65;21.40;;;18.60;99.90;;;;;;4192213;28;20036;-80
2021/07/21 07:31:56;;;;;;;29.33;21.02;;;18.60;99.90;;;;;;4193328;28;20103;-80
2021/07/21 07:33:57;;;;;;;25.48;19.70;;;18.80;99.90;;;;;;4190394;28;20037;-80
2021/07/21 07:35:58;;;;;;;26.48;19.70;;;19.00;99.90;;;;;;4192308;28;20430;-80
2021/07/21 07:38:00;;;;;;;25.73;21.27;;;19.20;99.90;;;;;;4188633;28;20076;-80
2021/07/21 07:40:01;;;;;;;23.98;17.35;;;19.30;99.90;;;;;;4187495;28;20033;-78
2021/07/21 07:42:02;;;;;;;22.58;19.45;;;19.40;99.90;;;;;;4196516;28;20083;-80
2021/07/21 07:44:04;;;;;;;25.00;19.52;;;19.60;99.90;;;;;;4189559;28;20029;-80
2021/07/21 07:46:07;;;;;;;25.25;20.52;;;19.70;99.90;;;;;;4186597;28;20059;-79
2021/07/21 07:48:07;;;;;;;24.45;19.60;;;19.80;99.90;;;;;;4196398;28;20128;-80
2021/07/21 07:50:10;;;;;;;26.98;19.10;;;19.70;99.90;;;;;;4197056;28;20382;-80
2021/07/21 07:52:11;;;;;;;24.25;18.98;;;19.80;99.90;;;;;;4185570;28;20071;-78
2021/07/21 07:54:12;;;;;;;25.83;19.75;;;20.00;99.90;;;;;;4187668;28;20033;-79
2021/07/21 07:56:14;;;;;;;22.15;18.00;;;20.20;99.90;;;;;;4186280;28;20029;-80
2021/07/21 07:58:15;;;;;;;23.70;19.33;;;20.30;99.90;;;;;;4181622;28;20041;-80
2021/07/21 08:00:17;;;;;;;22.58;18.25;;;20.40;99.90;;;;;;4192316;28;20617;-80
2021/07/21 08:02:17;;;;;;;19.60;17.50;;;20.40;99.90;;;;;;4196082;28;20476;-80
2021/07/21 08:04:18;;;;;;;19.55;17.23;;;20.60;99.90;;;;;;4195492;28;20358;-81
2021/07/21 08:06:19;;;;;;;23.30;15.50;;;20.70;99.90;;;;;;4191155;28;20423;-81
2021/07/21 08:08:21;;;;;;;19.13;16.48;;;20.90;99.90;;;;;;4194853;28;20033;-81
2021/07/21 08:10:22;;;;;;;20.83;15.52;;;21.10;99.90;;;;;;4189423;28;20028;-79
2021/07/21 08:12:23;;;;;;;26.95;16.92;;;21.20;99.90;;;;;;4189533;28;20029;-82
2021/07/21 08:14:27;;;;;;;20.13;16.83;;;21.30;99.90;;;;;;4195442;28;20408;-81
2021/07/21 08:16:28;;;;;;;20.45;16.85;;;21.40;99.90;;;;;;4197542;28;20103;-81
2021/07/21 08:18:29;;;;;;;20.80;15.40;;;21.50;99.90;;;;;;4195488;28;20532;-79
2021/07/21 08:20:30;;;;;;;18.80;15.32;;;21.60;99.90;;;;;;4203869;28;20486;-79
2021/07/21 08:22:38;;;;;;;16.88;13.70;;;21.50;99.90;;;;;;4201420;28;20104;-79
2021/07/21 08:24:39;;;;;;;21.20;16.88;;;21.70;99.90;;;;;;4202952;28;20035;-79
2021/07/21 08:26:39;;;;;;;17.77;15.55;;;21.70;99.90;;;;;;4192263;28;20535;-79
2021/07/21 08:28:40;;;;;;;22.80;14.38;;;21.80;99.90;;;;;;4207930;28;20491;-79
2021/07/21 08:30:42;;;;;;;22.52;16.17;;;22.00;99.90;;;;;;4190085;28;20049;-80
2021/07/21 08:32:48;;;;;;;22.88;15.63;;;22.10;99.90;;;;;;4211960;28;20463;-79
2021/07/21 08:34:49;;;;;;;19.02;15.43;;;22.10;99.90;;;;;;4200323;28;20050;-80
2021/07/21 08:36:49;;;;;;;17.80;15.38;;;22.30;99.90;;;;;;4211471;28;20032;-80
2021/07/21 08:38:51;;;;;;;16.08;14.15;;;22.40;99.90;;;;;;4192873;28;20021;-79
2021/07/21 08:40:55;;;;;;;18.83;15.88;;;22.30;99.90;;;;;;4213432;28;20028;-79
2021/07/21 08:42:56;;;;;;;17.40;15.43;;;22.30;99.90;;;;;;4192239;28;20157;-80
2021/07/21 08:44:59;;;;;;;16.52;14.68;;;22.30;99.90;;;;;;4213428;28;20016;-80
2021/07/21 08:47:01;;;;;;;20.80;16.02;;;22.40;99.90;;;;;;4197521;28;20107;-79
2021/07/21 08:49:02;;;;;;;22.33;15.98;;;22.50;99.90;;;;;;4200313;28;20040;-78
2021/07/21 08:51:03;;;;;;;21.80;15.32;;;22.60;99.90;;;;;;4195538;28;20404;-79
2021/07/21 08:53:05;;;;;;;16.80;15.00;;;22.70;99.90;;;;;;4213549;28;20040;-79
2021/07/21 08:55:08;;;;;;;17.40;13.57;;;22.80;99.90;;;;;;4191748;28;20044;-79
2021/07/21 08:57:11;;;;;;;16.35;13.48;;;;;;;;;;4191706;28;20085;-79
2021/07/21 08:59:16;;;;;;;17.60;12.80;;;23.00;99.90;;;;;;4195623;28;20029;-79
2021/07/21 09:01:18;;;;;;;17.88;13.38;;;23.20;99.90;;;;;;4190218;28;20524;-80
2021/07/21 09:03:21;;;;;;;15.63;13.85;;;23.40;99.90;;;;;;4198401;28;20047;-79
2021/07/21 09:05:24;;;;;;;15.75;14.05;;;23.40;99.90;;;;;;4194121;28;20111;-80
2021/07/21 09:07:25;;;;;;;14.40;12.88;;;23.40;99.90;;;;;;4213485;28;20028;-79
2021/07/21 09:09:25;;;;;;;15.52;13.35;;;23.70;99.90;;;;;;4194871;28;20028;-79
2021/07/21 09:11:27;;;;;;;13.95;12.55;;;24.00;99.90;;;;;;4211232;28;20387;-79
2021/07/21 09:13:27;;;;;;;17.17;12.80;;;24.00;99.90;;;;;;4205078;28;20091;-79
2021/07/21 09:15:28;;;;;;;16.80;14.25;;;24.20;99.90;;;;;;4190593;28;20377;-79
2021/07/21 09:17:30;;;;;;;16.67;13.18;;;23.40;99.90;;;;;;4208174;28;20036;-80
2021/07/21 09:19:35;;;;;;;;;;;24.50;99.90;;;;;;4195254;28;20059;-79
2021/07/21 09:21:36;;;;;;;16.05;12.77;;;24.70;99.90;;;;;;4208197;28;19915;-80
2021/07/21 09:23:42;;;;;;;18.05;12.68;;;24.70;99.90;;;;;;4193728;28;20102;-79
2021/07/21 09:25:43;;;;;;;16.67;12.55;;;24.70;99.90;;;;;;4196292;28;20024;-80
2021/07/21 09:27:50;;;;;;;13.80;11.23;;;24.70;99.90;;;;;;4212488;28;20458;-79
2021/07/21 09:29:52;;;;;;;12.90;11.30;;;24.90;99.90;;;;;;4211955;28;20028;-79
2021/07/21 09:31:57;;;;;;;16.40;12.18;;;25.10;99.90;;;;;;4197649;28;20035;-80
2021/07/21 09:34:09;;;;;;;17.77;13.23;;;25.30;99.90;;;;;;4192537;28;20537;-80
2021/07/21 09:36:18;;;;;;;19.50;13.48;;;25.20;99.90;;;;;;4209648;28;20089;-79
2021/07/21 09:38:22;;;;;;;16.27;13.32;;;25.30;99.90;;;;;;4211642;28;20119;-79
2021/07/21 09:40:24;;;;;;;19.48;12.82;;;25.20;99.90;;;;;;4209479;28;20529;-79
2021/07/21 09:42:30;;;;;;;16.30;13.53;;;25.40;99.90;;;;;;4191343;28;20065;-80
2021/07/21 09:44:37;;;;;;;19.00;14.55;;;25.80;99.90;;;;;;4214428;28;20679;-79
2021/07/21 09:46:38;;;;;;;18.85;14.35;;;26.20;99.90;;;;;;4189862;28;20032;-80
2021/07/21 09:48:44;;;;;;;17.25;13.05;;;;;;;;;;4216303;28;20480;-80
2021/07/21 09:50:48;;;;;;;14.90;11.25;;;26.50;99.90;;;;;;4198019;28;20047;-82
2021/07/21 09:52:53;;;;;;;14.88;11.52;;;26.70;99.90;;;;;;4185517;28;20059;-80
2021/07/21 09:55:11;;;;;;;14.60;11.85;;;;;;;;;;4213055;28;20519;-80
2021/07/21 09:57:12;;;;;;;12.93;11.30;;;;;;;;;;4211045;28;20024;-81
2021/07/21 09:59:22;;;;;;;15.93;11.83;;;27.00;99.90;;;;;;4195274;28;20029;-80
2021/07/21 10:01:30;;;;;;;15.05;10.98;;;27.40;99.90;;;;;;4211706;28;20788;-81
2021/07/21 10:03:38;;;;;;;11.70;9.85;;;27.70;99.90;;;;;;4203217;28;20055;-81
2021/07/21 10:05:57;;;;;;;12.75;10.57;;;27.00;99.90;;;;;;4188098;28;20032;-81
2021/07/21 10:08:06;;;;;;;15.10;10.95;;;28.20;99.90;;;;;;4214958;28;20352;-82
2021/07/21 10:10:16;;;;;;;15.07;11.45;;;28.10;99.90;;;;;;4197199;28;20086;-81
2021/07/21 10:12:18;;;;;;;13.82;10.63;;;27.70;99.90;;;;;;4207422;28;20105;-82
2021/07/21 10:14:19;;;;;;;18.40;12.07;;;27.60;99.90;;;;;;4214040;28;20066;-82
2021/07/21 10:16:43;;;;;;;14.43;11.25;;;27.60;99.90;;;;;;4194560;28;20025;-81
2021/07/21 10:19:07;;;;;;;18.50;10.27;;;27.80;99.90;;;;;;4212880;28;20063;-81
2021/07/21 10:21:10;;;;;;;14.35;10.57;;;28.60;99.90;;;;;;4195140;28;20036;-81
2021/07/21 10:23:13;;;;;;;13.43;11.38;;;28.50;99.90;;;;;;4196257;28;20036;-80
2021/07/21 10:25:14;;;;;;;12.82;10.85;;;28.60;99.90;;;;;;4196045;28;20078;-82
2021/07/21 10:27:15;;;;;;;12.57;10.40;;;28.60;99.90;;;;;;4184198;28;20032;-82
2021/07/21 10:29:16;;;;;;;13.68;11.68;;;28.50;99.90;;;;;;4202691;28;20376;-82
2021/07/21 10:31:17;;;;;;;14.95;11.43;;;25.20;99.90;;;;;;4188187;28;20090;-81